Time;durP1;ratioP1;P1;durP2;ratioP2;P2;SDS_P1;SDS_P2;PMS_P1;PMS_P2;Temp;Humidity;BMP_temperature;BMP_pressure;BME280_temperature;BME280_humidity;BME280_pressure;Samples;Min_cycle;Max_cycle;Signal;HPM_P1;HPM_P2
2022/06/27 00:01:06;;;;;;;6.35;2.92;;;;;;;22.84;61.73;100522.34;18353101;32;20092;-55
2022/06/27 00:11:11;;;;;;;3.87;2.33;;;;;;;22.51;62.20;100534.63;18352601;32;20373;-55
2022/06/27 00:21:15;;;;;;;5.22;2.80;;;;;;;22.61;61.42;100548.31;18362912;32;20145;-55
2022/06/27 00:31:19;;;;;;;5.22;2.75;;;;;;;22.79;60.28;100546.53;18362452;32;20102;-55
2022/06/27 00:41:23;;;;;;;4.53;2.40;;;;;;;22.78;59.34;100557.25;18362124;32;20121;-55
2022/06/27 00:51:27;;;;;;;5.07;2.60;;;;;;;22.88;58.73;100553.16;18360777;32;20096;-55
2022/06/27 01:01:31;;;;;;;5.35;2.30;;;;;;;23.01;57.85;100558.72;18413175;31;20112;-55
2022/06/27 01:11:35;;;;;;;4.85;2.40;;;;;;;22.77;58.83;100572.37;18412965;31;20120;-55
2022/06/27 01:21:44;;;;;;;4.40;2.70;;;;;;;22.56;59.77;100566.31;18412229;31;20110;-55
2022/06/27 01:31:49;;;;;;;5.15;2.47;;;;;;;22.75;59.11;100568.91;18359143;32;20107;-55
2022/06/27 01:41:54;;;;;;;4.68;2.33;;;;;;;22.56;59.32;100564.50;18358863;31;20117;-55
2022/06/27 01:52:00;;;;;;;6.50;2.35;;;;;;;22.54;59.04;100557.56;18359706;32;20112;-55
2022/06/27 02:02:07;;;;;;;4.93;2.40;;;;;;;22.14;60.32;100563.00;18359526;31;20101;-55
2022/06/27 02:12:22;;;;;;;5.30;2.53;;;;;;;22.51;58.49;100565.69;18357430;32;20461;-55
2022/06/27 02:22:26;;;;;;;4.53;2.12;;;;;;;22.43;58.73;100568.69;18357522;32;20093;-55
2022/06/27 02:32:30;;;;;;;4.87;2.90;;;;;;;22.39;58.90;100577.78;18357985;32;20093;-55
2022/06/27 02:42:35;;;;;;;4.75;2.90;;;;;;;21.99;60.08;100578.75;18355374;32;20096;-55
2022/06/27 02:52:42;;;;;;;5.55;2.47;;;;;;;21.97;60.02;100583.28;18355862;32;20089;-55
2022/06/27 03:02:46;;;;;;;4.30;2.58;;;;;;;21.85;60.37;100590.00;18355794;32;20124;-55
2022/06/27 03:12:51;;;;;;;4.85;2.20;;;;;;;21.79;60.61;100602.72;18354989;32;20094;-55
2022/06/27 03:22:55;;;;;;;5.50;2.50;;;;;;;21.70;61.36;100612.00;18354801;32;20101;-55
2022/06/27 03:32:59;;;;;;;5.95;2.87;;;;;;;21.68;61.48;100630.66;18354159;32;20093;-55
2022/06/27 03:43:03;;;;;;;4.43;2.40;;;;;;;21.89;61.03;100634.13;18353469;32;20120;-55
2022/06/27 03:53:07;;;;;;;5.05;2.50;;;;;;;22.10;61.24;100631.41;18360726;32;20117;-55
2022/06/27 04:03:11;;;;;;;4.97;2.45;;;;;;;22.33;61.03;100641.88;18415358;31;20108;-55
2022/06/27 04:13:15;;;;;;;6.22;3.05;;;;;;;22.61;60.53;100640.59;18362618;31;20461;-55
2022/06/27 04:23:19;;;;;;;5.97;2.50;;;;;;;23.20;59.88;100650.97;18362003;32;20399;-55
2022/06/27 04:33:23;;;;;;;6.57;2.30;;;;;;;23.94;57.28;100657.75;18361715;32;20117;-55
2022/06/27 04:43:27;;;;;;;5.80;2.58;;;;;;;25.00;54.16;100659.03;18361182;32;20111;-55
2022/06/27 04:53:32;;;;;;;6.18;2.58;;;;;;;25.60;52.51;100657.28;18360781;32;20110;-55
2022/06/27 05:03:35;;;;;;;4.78;2.37;;;;;;;25.99;52.35;100652.19;18361393;32;20118;-55
2022/06/27 05:13:40;;;;;;;5.10;2.40;;;;;;;26.28;50.80;100665.56;18360259;32;20089;-55
2022/06/27 05:23:43;;;;;;;5.25;2.35;;;;;;;26.77;50.64;100661.47;18359785;32;20104;-55
2022/06/27 05:33:48;;;;;;;5.62;2.70;;;;;;;26.87;50.50;100664.41;18359098;32;20128;-55
2022/06/27 05:43:51;;;;;;;4.40;2.40;;;;;;;26.23;51.01;100671.22;18358744;32;20098;-55
2022/06/27 05:53:57;;;;;;;4.53;2.40;;;;;;;26.90;50.02;100669.56;18355860;32;20115;-55
2022/06/27 06:04:00;;;;;;;4.50;2.33;;;;;;;26.20;51.20;100670.53;18410302;31;20101;-55
2022/06/27 06:14:05;;;;;;;5.60;2.85;;;;;;;27.03;49.57;100668.72;18359031;31;20089;-55
2022/06/27 06:24:09;;;;;;;5.93;2.58;;;;;;;26.78;49.63;100681.91;18357421;32;20105;-55
2022/06/27 06:34:14;;;;;;;6.03;2.62;;;;;;;28.17;47.12;100685.91;18356866;32;20116;-55
2022/06/27 06:44:19;;;;;;;5.28;2.30;;;;;;;28.23;46.63;100686.38;18355624;32;20101;-55
2022/06/27 06:54:25;;;;;;;6.20;2.28;;;;;;;27.80;46.38;100700.12;18356800;31;20105;-55
2022/06/27 07:04:29;;;;;;;4.82;2.30;;;;;;;28.82;45.35;100691.94;18355706;31;20097;-55
2022/06/27 07:14:34;;;;;;;4.30;2.30;;;;;;;28.33;44.67;100683.88;18353477;31;20093;-55
2022/06/27 07:24:37;;;;;;;5.50;2.20;;;;;;;29.60;42.54;100676.19;18364569;32;20516;-55
2022/06/27 07:34:42;;;;;;;6.50;2.35;;;;;;;29.77;41.98;100688.31;18429279;31;20617;-55
2022/06/27 07:44:45;;;;;;;4.75;2.35;;;;;;;29.79;41.40;100669.38;18643632;31;20545;-56
2022/06/27 07:54:51;;;;;;;4.45;2.20;;;;;;;30.22;39.14;100675.84;18643998;31;20072;-55
2022/06/27 08:04:55;;;;;;;5.05;2.10;;;;;;;31.47;36.78;100674.50;18643891;31;20103;-54
2022/06/27 08:15:00;;;;;;;4.72;2.05;;;;;;;31.05;38.18;100678.03;18642748;31;20461;-55
2022/06/27 08:25:05;;;;;;;3.30;2.03;;;;;;;31.86;36.73;100681.94;18636216;31;209167;-55
2022/06/27 08:35:10;;;;;;;2.75;1.80;;;;;;;32.61;34.53;100678.03;18636823;31;20132;-55
2022/06/27 08:45:15;;;;;;;3.05;1.87;;;;;;;31.88;35.94;100685.38;18363570;31;20381;-55
2022/06/27 08:55:19;;;;;;;4.03;2.05;;;;;;;32.63;34.68;100673.31;18361468;32;20105;-55
2022/06/27 09:05:26;;;;;;;5.87;2.50;;;;;;;32.48;34.87;100664.78;18360606;32;20093;-55
2022/06/27 09:15:52;;;;;;;4.43;1.80;;;;;;;33.25;32.79;100653.22;18360176;31;20081;-55
2022/06/27 09:26:00;;;;;;;3.53;2.00;;;;;;;33.77;31.16;100655.53;18359696;32;20097;-55
2022/06/27 09:36:14;;;;;;;3.10;1.83;;;;;;;34.37;30.83;100634.38;18359078;32;20449;-55
2022/06/27 09:46:18;;;;;;;5.50;1.90;;;;;;;33.33;30.68;100637.13;18358723;32;20441;-55
2022/06/27 09:56:23;;;;;;;4.47;1.75;;;;;;;34.47;29.82;100634.31;18405236;31;20100;-55
2022/06/27 10:06:26;;;;;;;3.28;2.05;;;;;;;35.36;29.06;100629.78;18421713;32;20127;-55
2022/06/27 10:16:32;;;;;;;4.95;1.90;;;;;;;33.50;31.11;100624.72;18421537;32;20081;-55
2022/06/27 10:26:42;;;;;;;3.53;1.85;;;;;;;35.25;29.66;100608.34;18421245;31;20447;-55
2022/06/27 10:36:49;;;;;;;4.40;1.87;;;;;;;36.38;27.47;100600.97;18420199;31;20181;-57
2022/06/27 10:46:52;;;;;;;4.50;1.70;;;;;;;36.65;25.03;100578.06;18421077;32;20175;-56
2022/06/27 10:56:58;;;;;;;5.10;1.87;;;;;;;37.12;25.68;100570.19;18419111;32;20506;-55
2022/06/27 11:07:03;;;;;;;5.25;2.10;;;;;;;34.59;27.90;100571.63;18430493;31;20097;-56
2022/06/27 11:17:07;;;;;;;3.15;1.90;;;;;;;35.45;28.77;100568.25;18355024;32;20094;-56
2022/06/27 11:27:11;;;;;;;3.03;1.80;;;;;;;35.79;26.06;100552.94;18354971;31;20160;-56
2022/06/27 11:37:16;;;;;;;4.47;1.90;;;;;;;36.42;26.07;100547.09;18354147;32;20121;-56
2022/06/27 11:47:27;;;;;;;5.70;2.10;;;;;;;34.48;29.19;100544.75;18357250;32;20108;-56
2022/06/27 11:57:33;;;;;;;3.17;1.70;;;;;;;36.56;24.79;100529.25;18418170;32;20089;-56
2022/06/27 12:07:56;;;;;;;3.20;1.58;;;;;;;36.16;25.16;100520.97;18417931;32;20129;-56
2022/06/27 12:18:02;;;;;;;3.40;1.67;;;;;;;36.41;24.33;100521.81;18478631;31;20084;-56
2022/06/27 12:28:07;;;;;;;3.22;1.73;;;;;;;36.86;24.02;100508.66;18479756;31;20460;-55
2022/06/27 12:38:11;;;;;;;4.43;1.80;;;;;;;37.11;24.47;100502.31;18425297;31;20121;-56
2022/06/27 12:48:15;;;;;;;2.55;1.85;;;;;;;37.62;23.10;100491.03;18423112;32;20097;-56
2022/06/27 12:58:20;;;;;;;5.15;2.15;;;;;;;37.56;22.29;100484.44;18476267;31;20076;-56
2022/06/27 13:08:23;;;;;;;2.70;1.70;;;;;;;38.07;21.56;100480.34;18474120;31;20105;-56
2022/06/27 13:18:28;;;;;;;3.78;1.87;;;;;;;37.24;21.99;100474.56;18422425;32;20144;-56
2022/06/27 13:28:31;;;;;;;2.25;1.50;;;;;;;37.71;21.46;100468.19;18371047;32;20109;-56
2022/06/27 13:38:36;;;;;;;3.33;1.83;;;;;;;37.71;21.98;100470.06;18392422;31;20449;-56
2022/06/27 13:48:39;;;;;;;2.92;1.73;;;;;;;36.99;22.16;100461.88;18412741;32;20133;-56
2022/06/27 13:58:43;;;;;;;2.62;1.80;;;;;;;38.06;21.57;100453.31;18473055;31;20145;-56
2022/06/27 14:08:47;;;;;;;3.28;1.70;;;;;;;37.78;21.95;100448.41;18422321;32;20088;-55
2022/06/27 14:18:51;;;;;;;4.50;1.85;;;;;;;37.88;21.29;100447.09;18473836;31;20140;-56
2022/06/27 14:28:55;;;;;;;4.72;2.08;;;;;;;37.05;21.44;100438.59;18410718;32;20093;-56
2022/06/27 14:39:00;;;;;;;3.53;1.80;;;;;;;35.85;24.71;100432.81;18398212;31;20102;-56
2022/06/27 14:49:04;;;;;;;4.40;1.90;;;;;;;36.77;23.96;100428.13;18425802;31;20086;-56
2022/06/27 14:59:08;;;;;;;4.82;1.90;;;;;;;36.03;24.45;100413.63;18379946;32;20104;-56
2022/06/27 15:09:11;;;;;;;5.28;1.83;;;;;;;36.83;22.89;100396.66;18384497;32;20102;-56
2022/06/27 15:19:18;;;;;;;3.35;1.80;;;;;;;37.08;24.81;100399.31;18417242;32;20090;-56
2022/06/27 15:29:25;;;;;;;3.65;1.77;;;;;;;36.65;24.42;100395.03;18395008;32;20096;-56
2022/06/27 15:39:29;;;;;;;6.50;2.17;;;;;;;36.77;25.08;100390.94;18384940;32;20089;-56
2022/06/27 15:49:33;;;;;;;3.62;2.05;;;;;;;35.78;25.72;100399.22;18391421;32;20116;-56
2022/06/27 15:59:37;;;;;;;3.70;1.80;;;;;;;36.70;24.60;100391.78;18471483;31;20405;-56
2022/06/27 16:09:41;;;;;;;3.20;1.85;;;;;;;35.93;26.39;100391.22;18389336;32;20625;-56
2022/06/27 16:19:45;;;;;;;2.87;1.60;;;;;;;36.25;26.43;100378.66;18374777;32;20097;-56
2022/06/27 16:30:10;;;;;;;3.05;1.80;;;;;;;35.88;25.25;100371.91;18417358;32;20150;-56
2022/06/27 16:40:14;;;;;;;6.12;2.42;;;;;;;35.53;27.20;100375.59;18425960;31;20128;-56
2022/06/27 16:50:17;;;;;;;3.30;1.70;;;;;;;35.20;27.81;100380.13;18424235;32;20444;-56
2022/06/27 17:00:22;;;;;;;5.55;2.20;;;;;;;35.15;28.40;100377.91;18474189;31;20100;-56
2022/06/27 17:10:26;;;;;;;3.58;1.80;;;;;;;34.96;27.78;100376.31;18424339;32;20133;-56
2022/06/27 17:20:31;;;;;;;4.18;1.90;;;;;;;34.77;28.14;100380.13;18422497;32;20115;-56
2022/06/27 17:30:34;;;;;;;3.67;1.90;;;;;;;34.60;27.88;100377.31;18424537;32;20130;-56
2022/06/27 17:40:39;;;;;;;6.20;2.22;;;;;;;33.82;28.45;100371.69;18421267;31;20118;-56
2022/06/27 17:50:42;;;;;;;3.58;2.20;;;;;;;33.01;29.23;100368.00;18422886;32;20101;-56
2022/06/27 18:00:47;;;;;;;5.80;2.20;;;;;;;33.12;30.00;100367.78;18475168;31;20101;-56
2022/06/27 18:11:10;;;;;;;3.37;1.83;;;;;;;33.23;29.68;100372.13;18423153;32;20188;-56
2022/06/27 18:21:15;;;;;;;4.30;2.20;;;;;;;32.90;29.65;100377.13;18475234;31;20127;-56
2022/06/27 18:31:19;;;;;;;6.72;2.50;;;;;;;32.91;29.34;100376.13;18475739;31;20359;-56
2022/06/27 18:41:24;;;;;;;5.40;2.33;;;;;;;32.83;30.02;100381.44;18420499;32;20097;-56
2022/06/27 18:51:28;;;;;;;6.60;2.50;;;;;;;32.39;31.99;100396.41;18420694;32;20096;-56
2022/06/27 19:01:32;;;;;;;9.65;2.37;;;;;;;32.06;33.67;100412.03;18413456;31;20707;-56
2022/06/27 19:11:36;;;;;;;4.43;2.30;;;;;;;31.27;35.89;100428.16;18418355;32;20120;-56
2022/06/27 19:21:41;;;;;;;8.13;2.42;;;;;;;30.84;37.37;100444.44;18408156;31;20101;-55
2022/06/27 19:31:44;;;;;;;8.43;2.85;;;;;;;30.44;37.82;100466.72;18354597;32;20103;-55
2022/06/27 19:41:50;;;;;;;6.22;2.72;;;;;;;29.82;40.10;100493.41;18354130;32;20095;-55
2022/06/27 19:51:53;;;;;;;5.55;2.50;;;;;;;29.33;40.84;100488.34;18353734;31;20111;-55
2022/06/27 20:01:58;;;;;;;4.90;2.70;;;;;;;28.92;42.15;100493.34;18352622;32;20373;-55
2022/06/27 20:12:01;;;;;;;5.00;2.53;;;;;;;28.42;42.72;100498.94;18364227;32;20141;-56
2022/06/27 20:22:06;;;;;;;4.90;2.75;;;;;;;28.49;41.63;100510.91;18381171;32;20107;-55
2022/06/27 20:32:09;;;;;;;6.85;3.25;;;;;;;28.25;42.77;100512.66;18389190;32;20141;-56
2022/06/27 20:42:14;;;;;;;5.40;3.05;;;;;;;27.22;46.67;100516.50;18390221;32;20721;-55
2022/06/27 20:52:18;;;;;;;4.90;2.47;;;;;;;27.67;44.60;100502.59;18443441;31;20087;-55
2022/06/27 21:02:23;;;;;;;6.93;3.00;;;;;;;27.45;44.72;100508.63;18389677;32;20116;-55
2022/06/27 21:12:26;;;;;;;4.30;2.35;;;;;;;27.00;44.36;100523.34;18380958;32;20179;-55
2022/06/27 21:22:31;;;;;;;5.97;2.67;;;;;;;27.64;43.22;100534.97;18360153;32;20115;-56
2022/06/27 21:32:40;;;;;;;5.75;3.28;;;;;;;27.72;43.73;100539.78;18359794;32;20129;-56
2022/06/27 21:42:45;;;;;;;7.15;2.70;;;;;;;27.21;45.40;100549.59;18358757;32;20145;-56
2022/06/27 21:52:48;;;;;;;9.32;3.37;;;;;;;26.93;46.41;100539.97;18359974;32;20377;-55
2022/06/27 22:02:53;;;;;;;7.25;2.75;;;;;;;26.60;47.27;100526.06;18358334;32;20112;-56
2022/06/27 22:12:59;;;;;;;5.45;2.62;;;;;;;26.52;47.87;100520.38;18358162;32;20104;-55
2022/06/27 22:23:03;;;;;;;5.97;2.62;;;;;;;26.34;48.26;100506.44;18357426;32;20396;-55
2022/06/27 22:33:08;;;;;;;5.43;2.50;;;;;;;26.34;48.13;100517.12;18357490;32;20105;-56
2022/06/27 22:43:13;;;;;;;5.07;2.45;;;;;;;26.28;47.82;100537.12;18356769;32;20158;-55
2022/06/27 22:53:16;;;;;;;5.55;2.83;;;;;;;26.08;48.29;100539.25;18408336;31;20096;-55
2022/06/27 23:03:20;;;;;;;6.43;2.75;;;;;;;25.91;49.23;100564.44;18356083;32;20369;-56
2022/06/27 23:13:24;;;;;;;5.55;2.90;;;;;;;25.60;50.50;100577.94;18356576;32;20149;-55
2022/06/27 23:23:30;;;;;;;6.82;3.17;;;;;;;25.35;51.23;100584.78;18355057;32;20112;-55
2022/06/27 23:33:33;;;;;;;5.82;2.87;;;;;;;25.04;52.29;100570.66;18354684;32;20101;-56
2022/06/27 23:43:38;;;;;;;7.45;3.22;;;;;;;24.89;52.64;100566.22;18354212;31;20115;-55
2022/06/27 23:53:41;;;;;;;6.55;3.03;;;;;;;24.33;54.98;100554.31;18353777;32;20137;-55
